createdAt,value
2017-10-29T00:01:55.688Z,12.00
2017-10-29T00:04:23.192Z,11.90
2017-10-29T00:06:50.722Z,11.90
2017-10-29T00:09:18.248Z,11.90
2017-10-29T00:11:45.751Z,12.00
2017-10-29T00:14:13.280Z,12.00
2017-10-29T00:16:40.797Z,12.00
2017-10-29T00:19:09.110Z,12.00
2017-10-29T00:21:36.621Z,12.00
2017-10-29T00:24:04.188Z,12.00
2017-10-29T00:26:32.499Z,11.90
2017-10-29T00:29:00.032Z,11.90
2017-10-29T00:31:28.332Z,11.90
2017-10-29T00:33:55.848Z,11.90
2017-10-29T00:36:23.399Z,12.00
2017-10-29T00:38:50.937Z,11.90
2017-10-29T00:41:18.464Z,12.00
2017-10-29T00:43:46.014Z,12.00
2017-10-29T00:46:13.533Z,12.00
2017-10-29T00:48:41.072Z,12.00
2017-10-29T00:51:08.584Z,12.00
2017-10-29T00:53:36.101Z,12.00
2017-10-29T00:56:03.638Z,11.90
2017-10-29T00:58:31.238Z,11.90
2017-10-29T01:00:58.788Z,11.90
2017-10-29T01:03:26.310Z,12.00
2017-10-29T01:05:53.835Z,11.90
2017-10-29T01:08:22.146Z,11.90
2017-10-29T01:10:49.652Z,11.90
2017-10-29T01:13:17.211Z,11.90
2017-10-29T01:15:45.498Z,11.80
2017-10-29T01:18:13.786Z,11.90
2017-10-29T01:20:41.331Z,11.80
2017-10-29T01:23:09.659Z,11.80
2017-10-29T01:25:37.198Z,11.80
2017-10-29T01:28:04.723Z,11.80
2017-10-29T01:30:33.024Z,11.80
2017-10-29T01:33:00.537Z,11.80
2017-10-29T01:35:29.557Z,11.90
2017-10-29T01:37:57.894Z,11.90
2017-10-29T01:40:26.199Z,11.90
2017-10-29T01:42:54.568Z,11.90
2017-10-29T01:45:22.184Z,11.80
2017-10-29T01:47:49.696Z,11.90
2017-10-29T01:50:18.003Z,11.80
2017-10-29T01:52:45.513Z,11.80
2017-10-29T01:55:13.062Z,11.90
2017-10-29T01:57:40.566Z,11.90
2017-10-29T02:00:08.088Z,11.90
2017-10-29T02:02:35.607Z,12.00
2017-10-29T02:05:03.147Z,12.00
2017-10-29T02:07:30.671Z,12.10
2017-10-29T02:09:58.211Z,12.10
2017-10-29T02:12:25.722Z,12.10
2017-10-29T02:14:53.272Z,12.10
2017-10-29T02:17:21.550Z,12.10
2017-10-29T02:19:49.862Z,12.10
2017-10-29T02:22:17.365Z,12.10
2017-10-29T02:24:45.679Z,12.20
2017-10-29T02:27:13.209Z,12.10
2017-10-29T02:29:41.478Z,12.00
2017-10-29T02:32:09.801Z,11.90
2017-10-29T02:34:37.320Z,11.90
2017-10-29T02:37:05.608Z,11.70
2017-10-29T02:39:33.131Z,11.70
2017-10-29T02:42:00.652Z,11.70
2017-10-29T02:44:28.167Z,11.60
2017-10-29T02:46:56.474Z,11.60
2017-10-29T02:49:23.999Z,11.60
2017-10-29T02:51:52.314Z,11.60
2017-10-29T02:54:19.832Z,11.60
2017-10-29T02:56:48.121Z,11.70
2017-10-29T02:59:16.560Z,11.70
2017-10-29T03:01:44.091Z,11.60
2017-10-29T03:04:11.619Z,11.60
2017-10-29T03:06:39.939Z,11.60
2017-10-29T03:09:07.467Z,11.60
2017-10-29T03:11:34.975Z,11.60
2017-10-29T03:14:02.524Z,11.60
2017-10-29T03:16:30.055Z,11.60
2017-10-29T03:18:57.582Z,11.30
2017-10-29T03:21:25.873Z,11.00
2017-10-29T03:23:53.396Z,11.00
2017-10-29T03:26:20.919Z,11.00
2017-10-29T03:28:48.438Z,11.00
2017-10-29T03:31:16.748Z,11.10
2017-10-29T03:33:44.257Z,11.10
2017-10-29T03:36:11.867Z,11.10
2017-10-29T03:38:39.376Z,11.10
2017-10-29T03:41:07.710Z,11.10
2017-10-29T03:43:35.232Z,11.10
2017-10-29T03:46:03.520Z,11.10
2017-10-29T03:48:31.049Z,11.00
2017-10-29T03:50:58.553Z,11.10
2017-10-29T03:53:26.099Z,11.10
2017-10-29T03:55:53.605Z,11.10
2017-10-29T03:58:21.152Z,11.10
2017-10-29T04:00:48.674Z,10.90
2017-10-29T04:03:16.200Z,10.70
2017-10-29T04:05:43.712Z,10.40
2017-10-29T04:08:11.255Z,10.30
2017-10-29T04:10:38.757Z,10.20
2017-10-29T04:13:06.280Z,10.20
2017-10-29T04:15:33.807Z,10.10
2017-10-29T04:18:02.121Z,10.10
2017-10-29T04:20:29.651Z,10.10
2017-10-29T04:22:57.190Z,10.20
2017-10-29T04:25:25.518Z,10.20
2017-10-29T04:27:53.043Z,10.20
2017-10-29T04:30:20.565Z,10.10
2017-10-29T04:32:48.080Z,10.20
2017-10-29T04:35:15.614Z,10.20
2017-10-29T04:37:43.917Z,10.30
2017-10-29T04:40:11.467Z,10.20
2017-10-29T04:42:38.996Z,10.30
2017-10-29T04:45:07.272Z,10.10
2017-10-29T04:47:35.564Z,10.10
2017-10-29T04:50:03.085Z,10.00
2017-10-29T04:52:30.608Z,10.00
2017-10-29T04:54:58.140Z,10.00
2017-10-29T04:57:25.691Z,10.10
2017-10-29T04:59:53.968Z,10.20
2017-10-29T05:02:22.264Z,10.20
2017-10-29T05:04:49.784Z,10.20
2017-10-29T05:07:17.311Z,10.10
2017-10-29T05:09:44.831Z,10.00
2017-10-29T05:12:12.356Z,10.10
2017-10-29T05:14:39.910Z,10.10
2017-10-29T05:17:07.432Z,10.20
2017-10-29T05:19:34.950Z,10.20
2017-10-29T05:22:03.248Z,10.20
2017-10-29T05:24:30.776Z,10.20
2017-10-29T05:26:59.065Z,10.10
2017-10-29T05:29:26.596Z,10.10
2017-10-29T05:31:54.149Z,10.10
2017-10-29T05:34:21.670Z,10.10
2017-10-29T05:36:49.194Z,10.10
2017-10-29T05:39:17.499Z,10.00
2017-10-29T05:41:45.027Z,10.00
2017-10-29T05:44:13.340Z,9.90
2017-10-29T05:46:40.871Z,9.90
2017-10-29T05:49:09.171Z,9.90
2017-10-29T05:51:36.736Z,9.90
2017-10-29T05:54:04.282Z,10.00
2017-10-29T05:56:31.851Z,9.90
2017-10-29T05:58:59.385Z,9.90
2017-10-29T06:01:26.893Z,9.90
2017-10-29T06:03:54.414Z,9.90
2017-10-29T06:06:21.959Z,9.90
2017-10-29T06:08:50.225Z,9.70
2017-10-29T06:11:18.530Z,9.70
2017-10-29T06:13:46.036Z,9.70
2017-10-29T06:16:13.558Z,9.70
2017-10-29T06:18:41.089Z,9.60
2017-10-29T06:21:08.622Z,9.50
2017-10-29T06:23:36.143Z,9.50
2017-10-29T06:26:03.678Z,9.60
2017-10-29T06:28:31.184Z,9.70
2017-10-29T06:30:58.705Z,9.70
2017-10-29T06:33:26.248Z,9.60
2017-10-29T06:35:53.770Z,9.60
2017-10-29T06:38:21.302Z,9.70
2017-10-29T06:40:48.809Z,9.50
2017-10-29T06:43:17.096Z,9.60
2017-10-29T06:45:44.607Z,9.50
2017-10-29T06:48:12.136Z,9.50
2017-10-29T06:50:39.637Z,9.40
2017-10-29T06:53:07.178Z,9.40
2017-10-29T06:55:34.684Z,9.30
2017-10-29T06:58:02.251Z,9.30
2017-10-29T07:00:29.785Z,9.30
2017-10-29T07:02:58.075Z,9.40
2017-10-29T07:05:25.600Z,9.40
2017-10-29T07:07:53.111Z,9.50
2017-10-29T07:10:20.650Z,9.40
2017-10-29T07:12:48.171Z,9.60
2017-10-29T07:15:15.715Z,9.60
2017-10-29T07:17:43.216Z,9.60
2017-10-29T07:20:11.484Z,9.80
2017-10-29T07:22:39.875Z,9.80
2017-10-29T07:25:08.165Z,10.00
2017-10-29T07:27:35.696Z,10.00
2017-10-29T07:30:03.973Z,10.20
2017-10-29T07:32:32.276Z,10.00
2017-10-29T07:34:59.799Z,10.00
2017-10-29T07:37:27.324Z,9.90
2017-10-29T07:39:54.862Z,9.80
2017-10-29T07:42:22.359Z,9.70
2017-10-29T07:44:49.881Z,9.60
2017-10-29T07:47:17.390Z,9.50
2017-10-29T07:49:44.920Z,9.50
2017-10-29T07:52:12.434Z,9.40
2017-10-29T07:54:39.952Z,9.40
2017-10-29T07:57:07.500Z,9.50
2017-10-29T07:59:35.024Z,9.50
2017-10-29T08:02:02.544Z,9.50
2017-10-29T08:04:30.816Z,9.50
2017-10-29T08:06:59.337Z,9.40
2017-10-29T08:09:26.855Z,9.40
2017-10-29T08:11:54.379Z,9.40
2017-10-29T08:14:21.908Z,9.40
2017-10-29T08:16:49.431Z,9.30
2017-10-29T08:19:16.951Z,9.20
2017-10-29T08:21:44.471Z,9.20
2017-10-29T08:24:12.786Z,9.00
2017-10-29T08:26:40.300Z,9.10
2017-10-29T08:29:08.587Z,9.60
2017-10-29T08:31:36.127Z,9.60
2017-10-29T08:34:04.427Z,10.40
2017-10-29T08:36:31.985Z,10.40
2017-10-29T08:38:59.501Z,10.70
2017-10-29T08:41:27.064Z,10.50
2017-10-29T08:43:54.567Z,10.40
2017-10-29T08:46:22.114Z,10.10
2017-10-29T08:48:50.415Z,9.80
2017-10-29T08:51:17.916Z,9.70
2017-10-29T08:53:46.200Z,9.80
2017-10-29T08:56:13.701Z,9.80
2017-10-29T08:58:41.240Z,9.90
2017-10-29T09:01:09.522Z,10.00
2017-10-29T09:03:37.084Z,10.00
2017-10-29T09:06:04.626Z,10.00
2017-10-29T09:08:32.899Z,10.00
2017-10-29T09:11:01.216Z,10.10
2017-10-29T09:13:28.747Z,10.10
2017-10-29T09:15:57.166Z,10.10
2017-10-29T09:18:24.687Z,10.10
2017-10-29T09:20:52.193Z,10.20
2017-10-29T09:23:19.716Z,10.20
2017-10-29T09:25:47.238Z,11.00
2017-10-29T09:28:15.547Z,12.40
2017-10-29T09:30:43.070Z,12.40
2017-10-29T09:33:10.597Z,13.70
2017-10-29T09:35:38.095Z,14.20
2017-10-29T09:38:06.360Z,13.80
2017-10-29T09:40:34.679Z,13.10
2017-10-29T09:43:02.197Z,13.10
2017-10-29T09:45:30.550Z,12.00
2017-10-29T09:47:58.075Z,12.00
2017-10-29T09:50:25.627Z,11.90
2017-10-29T09:52:53.155Z,11.90
2017-10-29T09:55:21.451Z,11.00
2017-10-29T09:57:48.995Z,11.00
2017-10-29T10:00:17.308Z,10.60
2017-10-29T10:02:44.831Z,10.60
2017-10-29T10:05:13.123Z,10.40
2017-10-29T10:07:40.665Z,10.40
2017-10-29T10:10:08.960Z,10.50
2017-10-29T10:12:36.491Z,10.50
2017-10-29T10:15:04.789Z,10.90
2017-10-29T10:17:33.057Z,11.00
2017-10-29T10:20:01.368Z,11.00
2017-10-29T10:22:28.894Z,10.90
2017-10-29T10:24:57.199Z,12.90
2017-10-29T10:27:24.724Z,12.90
2017-10-29T10:29:53.038Z,16.20
2017-10-29T10:32:20.578Z,16.10
2017-10-29T10:34:48.085Z,17.70
2017-10-29T10:37:15.626Z,18.60
2017-10-29T10:39:43.128Z,19.30
2017-10-29T10:42:11.441Z,22.20
2017-10-29T10:44:38.963Z,22.20
2017-10-29T10:47:07.233Z,24.30
2017-10-29T10:49:34.760Z,24.20
2017-10-29T10:52:02.283Z,24.10
2017-10-29T10:54:29.823Z,23.20
2017-10-29T10:56:58.097Z,21.40
2017-10-29T10:59:26.419Z,19.30
2017-10-29T11:01:53.925Z,19.20
2017-10-29T11:04:22.205Z,15.60
2017-10-29T11:06:50.507Z,14.50
2017-10-29T11:09:18.008Z,14.40
2017-10-29T11:11:45.556Z,13.40
2017-10-29T11:14:13.065Z,12.80
2017-10-29T11:16:41.368Z,11.40
2017-10-29T11:19:08.872Z,11.30
2017-10-29T11:21:36.400Z,10.30
2017-10-29T11:24:03.934Z,9.70
2017-10-29T11:26:31.461Z,9.70
2017-10-29T11:28:59.800Z,10.30
2017-10-29T11:31:27.304Z,10.30
2017-10-29T11:33:55.624Z,17.90
2017-10-29T11:36:23.145Z,17.80
2017-10-29T11:38:51.412Z,20.50
2017-10-29T11:41:19.730Z,22.00
2017-10-29T11:43:47.265Z,22.00
2017-10-29T11:46:14.807Z,23.90
2017-10-29T11:48:43.111Z,26.40
2017-10-29T11:51:10.648Z,26.40
2017-10-29T11:53:38.934Z,26.60
2017-10-29T11:56:06.462Z,26.50
2017-10-29T11:58:33.988Z,24.70
2017-10-29T12:01:01.505Z,22.50
2017-10-29T12:03:29.811Z,22.10
2017-10-29T12:05:57.327Z,22.10
2017-10-29T12:08:25.648Z,18.80
2017-10-29T12:10:53.175Z,18.70
2017-10-29T12:13:20.704Z,16.40
2017-10-29T12:15:49.007Z,18.90
2017-10-29T12:18:17.281Z,17.40
2017-10-29T12:20:45.586Z,16.10
2017-10-29T12:23:13.146Z,16.00
2017-10-29T12:25:40.680Z,15.10
2017-10-29T12:28:08.972Z,13.30
2017-10-29T12:30:36.493Z,13.30
2017-10-29T12:33:04.021Z,11.90
2017-10-29T12:35:31.525Z,11.00
2017-10-29T12:37:59.071Z,11.10
2017-10-29T12:40:27.336Z,18.40
2017-10-29T12:42:54.882Z,18.30
2017-10-29T12:45:22.396Z,18.30
2017-10-29T12:47:49.916Z,20.10
2017-10-29T12:50:18.959Z,22.00
2017-10-29T12:52:46.460Z,22.00
2017-10-29T12:55:13.984Z,22.70
2017-10-29T12:57:41.503Z,23.60
2017-10-29T13:00:09.806Z,21.80
2017-10-29T13:02:37.308Z,21.80
2017-10-29T13:05:04.817Z,23.20
2017-10-29T13:07:32.356Z,23.50
2017-10-29T13:09:59.891Z,23.90
2017-10-29T13:12:27.435Z,24.60
2017-10-29T13:14:55.858Z,24.70
2017-10-29T13:17:24.152Z,24.70
2017-10-29T13:19:51.667Z,24.70
2017-10-29T13:22:19.169Z,25.20
2017-10-29T13:24:46.688Z,25.20
2017-10-29T13:27:14.192Z,25.40
2017-10-29T13:29:41.731Z,24.80
2017-10-29T13:32:09.232Z,25.00
2017-10-29T13:34:36.769Z,25.20
2017-10-29T13:37:04.329Z,24.50
2017-10-29T13:39:31.836Z,23.90
2017-10-29T13:42:00.145Z,23.40
2017-10-29T13:44:27.655Z,23.40
2017-10-29T13:46:55.181Z,22.00
2017-10-29T13:49:22.699Z,19.80
2017-10-29T13:51:51.014Z,17.80
2017-10-29T13:54:18.566Z,17.80
2017-10-29T13:56:46.074Z,16.20
2017-10-29T13:59:13.624Z,16.80
2017-10-29T14:01:41.146Z,15.80
2017-10-29T14:04:08.694Z,15.90
2017-10-29T14:06:36.201Z,15.00
2017-10-29T14:09:03.758Z,13.50
2017-10-29T14:11:31.287Z,12.60
2017-10-29T14:13:58.859Z,13.30
2017-10-29T14:16:26.407Z,14.10
2017-10-29T14:18:53.939Z,14.40
2017-10-29T14:21:21.501Z,14.40
2017-10-29T14:23:49.014Z,13.20
2017-10-29T14:26:16.548Z,12.50
2017-10-29T14:28:44.082Z,11.80
2017-10-29T14:31:11.610Z,11.30
2017-10-29T14:33:39.909Z,10.70
2017-10-29T14:36:07.439Z,10.60
2017-10-29T14:38:34.965Z,10.40
2017-10-29T14:41:02.567Z,9.90
2017-10-29T14:43:30.908Z,9.40
2017-10-29T14:45:58.545Z,9.40
2017-10-29T14:48:26.049Z,9.30
2017-10-29T14:50:54.462Z,9.40
2017-10-29T14:53:21.968Z,9.30
2017-10-29T14:55:49.494Z,9.50
2017-10-29T14:58:17.773Z,10.30
2017-10-29T15:00:45.388Z,10.40
2017-10-29T15:03:13.670Z,12.40
2017-10-29T15:05:41.961Z,12.70
2017-10-29T15:08:09.500Z,12.60
2017-10-29T15:10:37.781Z,13.30
2017-10-29T15:13:06.089Z,12.90
2017-10-29T15:15:33.617Z,12.90
2017-10-29T15:18:01.934Z,11.90
2017-10-29T15:20:29.449Z,11.80
2017-10-29T15:22:57.750Z,10.70
2017-10-29T15:25:25.273Z,10.70
2017-10-29T15:27:52.798Z,10.30
2017-10-29T15:30:20.340Z,9.90
2017-10-29T15:32:47.864Z,9.80
2017-10-29T15:35:15.412Z,9.40
2017-10-29T15:37:43.698Z,9.10
2017-10-29T15:40:11.972Z,9.20
2017-10-29T15:42:40.265Z,9.00
2017-10-29T15:45:07.782Z,9.00
2017-10-29T15:47:35.318Z,8.80
2017-10-29T15:50:02.838Z,8.50
2017-10-29T15:52:31.146Z,8.10
2017-10-29T15:54:58.679Z,8.00
2017-10-29T15:57:26.185Z,7.90
2017-10-29T15:59:53.756Z,7.80
2017-10-29T16:02:21.271Z,7.60
2017-10-29T16:04:48.939Z,7.50
2017-10-29T16:07:16.455Z,7.40
2017-10-29T16:09:44.769Z,7.40
2017-10-29T16:12:12.276Z,7.30
2017-10-29T16:14:39.790Z,7.30
2017-10-29T16:17:07.331Z,7.30
2017-10-29T16:19:34.850Z,7.20
2017-10-29T16:22:02.395Z,7.20
2017-10-29T16:24:29.922Z,7.10
2017-10-29T16:26:57.457Z,7.30
2017-10-29T16:29:25.003Z,7.20
2017-10-29T16:31:53.317Z,7.20
2017-10-29T16:34:20.852Z,7.20
2017-10-29T16:36:48.387Z,7.10
2017-10-29T16:39:16.708Z,7.00
2017-10-29T16:41:44.235Z,7.00
2017-10-29T16:44:11.784Z,7.00
2017-10-29T16:46:39.347Z,7.00
2017-10-29T16:49:07.639Z,7.10
2017-10-29T16:51:35.218Z,7.00
2017-10-29T16:54:02.742Z,7.00
2017-10-29T16:56:31.039Z,7.10
2017-10-29T16:58:58.603Z,7.00
2017-10-29T17:01:26.147Z,7.10
2017-10-29T17:03:53.666Z,7.20
2017-10-29T17:06:21.216Z,7.10
2017-10-29T17:08:48.752Z,7.10
2017-10-29T17:11:16.278Z,7.10
2017-10-29T17:13:44.590Z,6.90
2017-10-29T17:16:12.097Z,6.90
2017-10-29T17:18:40.405Z,6.80
2017-10-29T17:21:07.912Z,6.80
2017-10-29T17:23:35.451Z,6.70
2017-10-29T17:26:02.955Z,6.60
2017-10-29T17:28:31.253Z,6.60
2017-10-29T17:30:58.774Z,6.60
2017-10-29T17:33:27.807Z,6.50
2017-10-29T17:35:55.332Z,6.50
2017-10-29T17:38:23.637Z,6.50
2017-10-29T17:40:51.142Z,6.50
2017-10-29T17:43:18.672Z,6.50
2017-10-29T17:45:46.440Z,6.40
2017-10-29T17:48:13.979Z,6.40
2017-10-29T17:50:41.500Z,6.40
2017-10-29T17:53:09.105Z,6.30
2017-10-29T17:55:36.633Z,6.30
2017-10-29T17:58:04.904Z,6.30
2017-10-29T18:00:33.200Z,6.30
2017-10-29T18:03:00.785Z,6.20
2017-10-29T18:05:28.346Z,6.30
2017-10-29T18:07:55.869Z,6.20
2017-10-29T18:10:24.145Z,6.30
2017-10-29T18:12:52.435Z,6.20
2017-10-29T18:15:19.971Z,6.20
2017-10-29T18:17:48.323Z,6.20
2017-10-29T18:20:15.828Z,6.20
2017-10-29T18:22:43.358Z,6.20
2017-10-29T18:25:11.678Z,6.10
2017-10-29T18:27:39.203Z,6.10
2017-10-29T18:30:07.515Z,6.10
2017-10-29T18:32:35.039Z,6.10
2017-10-29T18:35:03.349Z,6.20
2017-10-29T18:37:30.870Z,6.20
2017-10-29T18:39:59.175Z,6.10
2017-10-29T18:42:26.710Z,6.10
2017-10-29T18:44:54.216Z,6.10
2017-10-29T18:47:21.737Z,6.10
2017-10-29T18:49:50.018Z,6.10
2017-10-29T18:52:17.562Z,6.10
2017-10-29T18:54:45.849Z,6.10
2017-10-29T18:57:13.371Z,6.10
2017-10-29T18:59:40.932Z,6.10
2017-10-29T19:02:08.554Z,6.00
2017-10-29T19:04:36.081Z,6.00
2017-10-29T19:07:04.348Z,5.90
2017-10-29T19:09:32.653Z,5.80
2017-10-29T19:12:00.175Z,5.80
2017-10-29T19:14:27.699Z,5.80
2017-10-29T19:16:55.243Z,5.90
2017-10-29T19:19:22.767Z,5.90
2017-10-29T19:21:51.070Z,5.80
2017-10-29T19:24:18.600Z,5.80
2017-10-29T19:26:46.896Z,5.70
2017-10-29T19:29:14.448Z,5.70
2017-10-29T19:31:41.964Z,5.70
2017-10-29T19:34:09.499Z,5.60
2017-10-29T19:36:37.031Z,5.70
2017-10-29T19:39:04.603Z,5.70
2017-10-29T19:41:32.108Z,5.70
2017-10-29T19:43:59.671Z,5.70
2017-10-29T19:46:27.191Z,5.70
2017-10-29T19:48:54.692Z,5.80
2017-10-29T19:51:22.213Z,5.90
2017-10-29T19:53:49.739Z,5.90
2017-10-29T19:56:17.294Z,5.80
2017-10-29T19:58:44.823Z,5.70
2017-10-29T20:01:12.375Z,5.70
2017-10-29T20:03:39.928Z,5.70
2017-10-29T20:06:07.434Z,5.70
2017-10-29T20:08:34.953Z,5.70
2017-10-29T20:11:02.495Z,5.60
2017-10-29T20:13:30.011Z,5.60
2017-10-29T20:18:30.375Z,5.50
2017-10-29T20:20:57.910Z,5.50
2017-10-29T20:23:25.435Z,5.50
2017-10-29T20:25:52.960Z,5.40
2017-10-29T20:28:20.499Z,5.40
2017-10-29T20:30:48.005Z,5.40
2017-10-29T20:33:15.538Z,5.40
2017-10-29T20:35:43.046Z,5.40
2017-10-29T20:38:11.354Z,5.40
2017-10-29T20:40:38.855Z,5.40
2017-10-29T20:43:06.360Z,5.40
2017-10-29T20:45:33.904Z,5.50
2017-10-29T20:48:01.431Z,5.50
2017-10-29T20:50:28.970Z,5.50
2017-10-29T20:52:56.487Z,5.50
2017-10-29T20:55:24.039Z,5.50
2017-10-29T20:57:51.546Z,5.40
2017-10-29T21:00:19.075Z,5.40
2017-10-29T21:02:46.596Z,5.40
2017-10-29T21:05:14.870Z,5.40
2017-10-29T21:07:43.179Z,5.40
2017-10-29T21:10:10.691Z,5.40
2017-10-29T21:12:38.996Z,5.40
2017-10-29T21:15:06.523Z,5.40
2017-10-29T21:17:34.029Z,5.40
2017-10-29T21:20:01.566Z,5.40
2017-10-29T21:22:29.855Z,5.30
2017-10-29T21:24:57.493Z,5.30
2017-10-29T21:27:25.761Z,5.30
2017-10-29T21:29:54.835Z,5.40
2017-10-29T21:32:23.866Z,5.30
2017-10-29T21:34:52.151Z,5.40
2017-10-29T21:37:20.447Z,5.30
2017-10-29T21:39:47.968Z,5.30
2017-10-29T21:42:16.257Z,5.40
2017-10-29T21:44:44.539Z,5.40
2017-10-29T21:47:12.103Z,5.40
2017-10-29T21:49:39.628Z,5.40
2017-10-29T21:52:07.151Z,5.40
2017-10-29T21:54:34.698Z,5.40
2017-10-29T21:57:02.219Z,5.40
2017-10-29T21:59:30.523Z,5.30
2017-10-29T22:01:58.028Z,5.30
2017-10-29T22:04:25.578Z,5.30
2017-10-29T22:06:53.096Z,5.30
2017-10-29T22:09:20.615Z,5.20
2017-10-29T22:11:48.172Z,5.30
2017-10-29T22:14:15.660Z,5.20
2017-10-29T22:16:43.189Z,5.20
2017-10-29T22:19:10.710Z,5.30
2017-10-29T22:21:38.259Z,5.30
2017-10-29T22:24:05.761Z,5.30
2017-10-29T22:26:33.279Z,5.30
2017-10-29T22:29:00.824Z,5.20
2017-10-29T22:31:28.348Z,5.20
2017-10-29T22:33:56.647Z,5.20
2017-10-29T22:36:24.170Z,5.20
2017-10-29T22:38:51.714Z,5.10
2017-10-29T22:41:19.225Z,5.10
2017-10-29T22:43:46.746Z,5.00
2017-10-29T22:46:14.307Z,5.00
2017-10-29T22:48:41.813Z,5.10
2017-10-29T22:51:09.336Z,5.00
2017-10-29T22:53:37.609Z,5.00
2017-10-29T22:56:05.912Z,4.90
2017-10-29T22:58:33.455Z,4.90
2017-10-29T23:01:00.975Z,5.00
2017-10-29T23:03:28.514Z,4.90
2017-10-29T23:05:56.036Z,5.00
2017-10-29T23:08:31.241Z,5.10
2017-10-29T23:10:58.749Z,5.00
2017-10-29T23:13:26.286Z,5.10
2017-10-29T23:15:54.569Z,5.20
2017-10-29T23:18:22.107Z,5.20
2017-10-29T23:20:50.377Z,5.30
2017-10-29T23:23:17.926Z,5.30
2017-10-29T23:25:45.424Z,5.40
2017-10-29T23:28:12.930Z,5.40
2017-10-29T23:30:40.461Z,5.40
2017-10-29T23:33:07.979Z,5.40
2017-10-29T23:35:36.282Z,5.40
2017-10-29T23:38:03.798Z,5.40
2017-10-29T23:40:31.352Z,5.40
2017-10-29T23:42:58.857Z,5.40
2017-10-29T23:45:26.358Z,5.30
2017-10-29T23:47:53.886Z,5.20
2017-10-29T23:50:21.415Z,5.20
2017-10-29T23:52:49.727Z,5.10
2017-10-29T23:55:17.239Z,5.10
2017-10-29T23:57:45.551Z,5.00
